sensor_id;sensor_type;location;lat;lon;timestamp;P1;durP1;ratioP1;P2;durP2;ratioP2
8952;SDS011;4511;50.890;8.054;2022-10-31T00:01:38;15.63;;;8.50;;
8952;SDS011;4511;50.890;8.054;2022-10-31T00:04:05;17.90;;;8.87;;
8952;SDS011;4511;50.890;8.054;2022-10-31T00:06:34;13.00;;;7.60;;
8952;SDS011;4511;50.890;8.054;2022-10-31T00:09:03;13.93;;;7.80;;
8952;SDS011;4511;50.890;8.054;2022-10-31T00:11:30;13.97;;;8.13;;
8952;SDS011;4511;50.890;8.054;2022-10-31T00:13:57;12.83;;;7.70;;
8952;SDS011;4511;50.890;8.054;2022-10-31T00:16:24;14.10;;;7.33;;
8952;SDS011;4511;50.890;8.054;2022-10-31T00:18:53;12.60;;;7.47;;
8952;SDS011;4511;50.890;8.054;2022-10-31T00:21:21;15.67;;;7.53;;
8952;SDS011;4511;50.890;8.054;2022-10-31T00:23:48;14.93;;;8.10;;
8952;SDS011;4511;50.890;8.054;2022-10-31T00:26:16;12.03;;;7.90;;
8952;SDS011;4511;50.890;8.054;2022-10-31T00:28:44;13.93;;;8.50;;
8952;SDS011;4511;50.890;8.054;2022-10-31T00:31:11;16.97;;;7.90;;
8952;SDS011;4511;50.890;8.054;2022-10-31T00:33:39;12.10;;;7.27;;
8952;SDS011;4511;50.890;8.054;2022-10-31T00:36:07;13.00;;;7.73;;
8952;SDS011;4511;50.890;8.054;2022-10-31T00:38:36;17.33;;;8.00;;
8952;SDS011;4511;50.890;8.054;2022-10-31T00:41:03;10.30;;;7.37;;
8952;SDS011;4511;50.890;8.054;2022-10-31T00:43:31;15.93;;;7.70;;
8952;SDS011;4511;50.890;8.054;2022-10-31T00:45:58;10.57;;;7.33;;
8952;SDS011;4511;50.890;8.054;2022-10-31T00:48:25;13.57;;;7.70;;
8952;SDS011;4511;50.890;8.054;2022-10-31T00:50:52;10.80;;;7.27;;
8952;SDS011;4511;50.890;8.054;2022-10-31T00:53:18;12.87;;;7.70;;
8952;SDS011;4511;50.890;8.054;2022-10-31T00:55:45;11.83;;;8.50;;
8952;SDS011;4511;50.890;8.054;2022-10-31T00:58:12;9.53;;;7.63;;
8952;SDS011;4511;50.890;8.054;2022-10-31T01:00:41;13.90;;;8.20;;
8952;SDS011;4511;50.890;8.054;2022-10-31T01:03:07;11.30;;;7.87;;
8952;SDS011;4511;50.890;8.054;2022-10-31T01:05:34;16.70;;;8.03;;
8952;SDS011;4511;50.890;8.054;2022-10-31T01:08:01;12.67;;;7.43;;
8952;SDS011;4511;50.890;8.054;2022-10-31T01:10:28;12.13;;;7.37;;
8952;SDS011;4511;50.890;8.054;2022-10-31T01:12:55;10.87;;;7.43;;
8952;SDS011;4511;50.890;8.054;2022-10-31T01:15:22;12.77;;;7.30;;
8952;SDS011;4511;50.890;8.054;2022-10-31T01:17:50;13.73;;;7.77;;
8952;SDS011;4511;50.890;8.054;2022-10-31T01:20:17;12.83;;;7.03;;
8952;SDS011;4511;50.890;8.054;2022-10-31T01:22:44;15.43;;;7.70;;
8952;SDS011;4511;50.890;8.054;2022-10-31T01:25:11;12.63;;;6.97;;
8952;SDS011;4511;50.890;8.054;2022-10-31T01:27:38;15.07;;;6.97;;
8952;SDS011;4511;50.890;8.054;2022-10-31T01:30:05;10.07;;;7.07;;
8952;SDS011;4511;50.890;8.054;2022-10-31T01:32:32;12.77;;;8.17;;
8952;SDS011;4511;50.890;8.054;2022-10-31T01:35:00;13.37;;;7.27;;
8952;SDS011;4511;50.890;8.054;2022-10-31T01:37:27;12.63;;;7.43;;
8952;SDS011;4511;50.890;8.054;2022-10-31T01:39:54;13.37;;;7.57;;
8952;SDS011;4511;50.890;8.054;2022-10-31T01:42:21;12.23;;;7.40;;
8952;SDS011;4511;50.890;8.054;2022-10-31T01:44:56;12.90;;;7.50;;
8952;SDS011;4511;50.890;8.054;2022-10-31T01:47:36;12.73;;;6.80;;
8952;SDS011;4511;50.890;8.054;2022-10-31T01:50:15;14.80;;;7.13;;
8952;SDS011;4511;50.890;8.054;2022-10-31T01:52:52;10.27;;;6.33;;
8952;SDS011;4511;50.890;8.054;2022-10-31T01:55:20;13.57;;;7.10;;
8952;SDS011;4511;50.890;8.054;2022-10-31T01:57:51;13.13;;;7.17;;
8952;SDS011;4511;50.890;8.054;2022-10-31T02:00:20;11.43;;;6.80;;
8952;SDS011;4511;50.890;8.054;2022-10-31T02:02:48;17.23;;;6.93;;
8952;SDS011;4511;50.890;8.054;2022-10-31T02:05:17;15.97;;;7.07;;
8952;SDS011;4511;50.890;8.054;2022-10-31T02:07:50;11.80;;;7.47;;
8952;SDS011;4511;50.890;8.054;2022-10-31T02:10:21;10.77;;;7.90;;
8952;SDS011;4511;50.890;8.054;2022-10-31T02:12:49;11.53;;;7.43;;
8952;SDS011;4511;50.890;8.054;2022-10-31T02:15:18;13.90;;;7.57;;
8952;SDS011;4511;50.890;8.054;2022-10-31T02:17:44;12.10;;;7.40;;
8952;SDS011;4511;50.890;8.054;2022-10-31T02:20:13;11.40;;;7.10;;
8952;SDS011;4511;50.890;8.054;2022-10-31T02:22:49;15.33;;;8.23;;
8952;SDS011;4511;50.890;8.054;2022-10-31T02:25:51;13.57;;;7.97;;
8952;SDS011;4511;50.890;8.054;2022-10-31T02:28:35;12.17;;;6.87;;
8952;SDS011;4511;50.890;8.054;2022-10-31T02:31:18;15.37;;;6.57;;
8952;SDS011;4511;50.890;8.054;2022-10-31T02:33:55;11.07;;;6.90;;
8952;SDS011;4511;50.890;8.054;2022-10-31T02:36:27;12.63;;;7.43;;
8952;SDS011;4511;50.890;8.054;2022-10-31T02:39:02;12.00;;;7.13;;
8952;SDS011;4511;50.890;8.054;2022-10-31T02:41:39;10.10;;;6.90;;
8952;SDS011;4511;50.890;8.054;2022-10-31T02:44:15;12.73;;;6.13;;
8952;SDS011;4511;50.890;8.054;2022-10-31T02:46:48;10.53;;;6.80;;
8952;SDS011;4511;50.890;8.054;2022-10-31T02:49:18;14.63;;;6.40;;
8952;SDS011;4511;50.890;8.054;2022-10-31T02:51:50;16.00;;;7.07;;
8952;SDS011;4511;50.890;8.054;2022-10-31T02:54:18;12.43;;;6.87;;
8952;SDS011;4511;50.890;8.054;2022-10-31T02:56:46;11.63;;;6.97;;
8952;SDS011;4511;50.890;8.054;2022-10-31T02:59:15;8.80;;;6.30;;
8952;SDS011;4511;50.890;8.054;2022-10-31T03:01:45;8.63;;;6.57;;
8952;SDS011;4511;50.890;8.054;2022-10-31T03:07:34;12.70;;;6.73;;
8952;SDS011;4511;50.890;8.054;2022-10-31T03:10:10;11.20;;;6.70;;
8952;SDS011;4511;50.890;8.054;2022-10-31T03:12:46;12.90;;;6.60;;
8952;SDS011;4511;50.890;8.054;2022-10-31T03:15:21;11.73;;;6.80;;
8952;SDS011;4511;50.890;8.054;2022-10-31T03:17:54;11.60;;;7.23;;
8952;SDS011;4511;50.890;8.054;2022-10-31T03:20:28;10.80;;;6.90;;
8952;SDS011;4511;50.890;8.054;2022-10-31T03:23:00;12.97;;;6.73;;
8952;SDS011;4511;50.890;8.054;2022-10-31T03:25:28;16.60;;;8.50;;
8952;SDS011;4511;50.890;8.054;2022-10-31T03:27:57;12.23;;;7.07;;
8952;SDS011;4511;50.890;8.054;2022-10-31T03:30:27;12.57;;;7.33;;
8952;SDS011;4511;50.890;8.054;2022-10-31T03:32:57;11.97;;;6.60;;
8952;SDS011;4511;50.890;8.054;2022-10-31T03:35:28;13.67;;;7.03;;
8952;SDS011;4511;50.890;8.054;2022-10-31T03:37:56;12.00;;;7.17;;
8952;SDS011;4511;50.890;8.054;2022-10-31T03:40:26;13.33;;;6.90;;
8952;SDS011;4511;50.890;8.054;2022-10-31T03:42:55;9.73;;;7.17;;
8952;SDS011;4511;50.890;8.054;2022-10-31T03:45:27;11.57;;;6.37;;
8952;SDS011;4511;50.890;8.054;2022-10-31T03:47:58;9.87;;;6.60;;
8952;SDS011;4511;50.890;8.054;2022-10-31T03:50:27;11.13;;;7.00;;
8952;SDS011;4511;50.890;8.054;2022-10-31T03:53:00;13.27;;;7.27;;
8952;SDS011;4511;50.890;8.054;2022-10-31T03:55:33;14.87;;;6.87;;
8952;SDS011;4511;50.890;8.054;2022-10-31T03:58:07;10.63;;;6.50;;
8952;SDS011;4511;50.890;8.054;2022-10-31T04:00:37;10.50;;;6.87;;
8952;SDS011;4511;50.890;8.054;2022-10-31T04:03:09;11.47;;;6.60;;
8952;SDS011;4511;50.890;8.054;2022-10-31T04:05:43;8.40;;;6.20;;
8952;SDS011;4511;50.890;8.054;2022-10-31T04:08:14;10.87;;;7.20;;
8952;SDS011;4511;50.890;8.054;2022-10-31T04:10:43;10.33;;;6.70;;
8952;SDS011;4511;50.890;8.054;2022-10-31T04:13:13;11.70;;;6.90;;
8952;SDS011;4511;50.890;8.054;2022-10-31T04:15:43;11.63;;;6.70;;
8952;SDS011;4511;50.890;8.054;2022-10-31T04:18:13;12.10;;;6.17;;
8952;SDS011;4511;50.890;8.054;2022-10-31T04:20:41;9.80;;;6.20;;
8952;SDS011;4511;50.890;8.054;2022-10-31T04:23:10;8.90;;;6.27;;
8952;SDS011;4511;50.890;8.054;2022-10-31T04:25:43;13.23;;;6.80;;
8952;SDS011;4511;50.890;8.054;2022-10-31T04:28:10;6.97;;;6.20;;
8952;SDS011;4511;50.890;8.054;2022-10-31T04:30:36;12.70;;;6.80;;
8952;SDS011;4511;50.890;8.054;2022-10-31T04:33:03;11.27;;;6.63;;
8952;SDS011;4511;50.890;8.054;2022-10-31T04:35:31;10.47;;;6.77;;
8952;SDS011;4511;50.890;8.054;2022-10-31T04:37:58;13.87;;;6.60;;
8952;SDS011;4511;50.890;8.054;2022-10-31T04:40:25;15.83;;;6.80;;
8952;SDS011;4511;50.890;8.054;2022-10-31T04:42:51;11.23;;;6.70;;
8952;SDS011;4511;50.890;8.054;2022-10-31T04:45:18;9.67;;;7.00;;
8952;SDS011;4511;50.890;8.054;2022-10-31T04:47:45;10.87;;;7.70;;
8952;SDS011;4511;50.890;8.054;2022-10-31T04:50:12;14.23;;;6.87;;
8952;SDS011;4511;50.890;8.054;2022-10-31T04:52:40;13.47;;;7.23;;
8952;SDS011;4511;50.890;8.054;2022-10-31T04:55:08;7.63;;;6.30;;
8952;SDS011;4511;50.890;8.054;2022-10-31T04:57:39;12.87;;;6.70;;
8952;SDS011;4511;50.890;8.054;2022-10-31T05:00:07;15.37;;;7.87;;
8952;SDS011;4511;50.890;8.054;2022-10-31T05:02:42;15.47;;;6.60;;
8952;SDS011;4511;50.890;8.054;2022-10-31T05:05:09;14.47;;;6.73;;
8952;SDS011;4511;50.890;8.054;2022-10-31T05:07:37;12.83;;;6.73;;
8952;SDS011;4511;50.890;8.054;2022-10-31T05:10:07;9.03;;;6.00;;
8952;SDS011;4511;50.890;8.054;2022-10-31T05:12:35;10.70;;;6.33;;
8952;SDS011;4511;50.890;8.054;2022-10-31T05:15:03;9.37;;;6.40;;
8952;SDS011;4511;50.890;8.054;2022-10-31T05:17:31;10.73;;;6.87;;
8952;SDS011;4511;50.890;8.054;2022-10-31T05:19:58;11.10;;;6.30;;
8952;SDS011;4511;50.890;8.054;2022-10-31T05:22:24;16.67;;;6.37;;
8952;SDS011;4511;50.890;8.054;2022-10-31T05:24:53;13.77;;;6.73;;
8952;SDS011;4511;50.890;8.054;2022-10-31T05:27:19;11.50;;;6.40;;
8952;SDS011;4511;50.890;8.054;2022-10-31T05:29:46;10.67;;;6.50;;
8952;SDS011;4511;50.890;8.054;2022-10-31T05:32:13;12.90;;;7.00;;
8952;SDS011;4511;50.890;8.054;2022-10-31T05:34:40;10.13;;;6.23;;
8952;SDS011;4511;50.890;8.054;2022-10-31T05:37:06;12.33;;;7.07;;
8952;SDS011;4511;50.890;8.054;2022-10-31T05:39:33;13.77;;;6.70;;
8952;SDS011;4511;50.890;8.054;2022-10-31T05:42:01;13.03;;;7.00;;
8952;SDS011;4511;50.890;8.054;2022-10-31T05:44:28;9.13;;;6.67;;
8952;SDS011;4511;50.890;8.054;2022-10-31T05:46:55;11.33;;;6.60;;
8952;SDS011;4511;50.890;8.054;2022-10-31T05:49:22;10.67;;;6.83;;
8952;SDS011;4511;50.890;8.054;2022-10-31T05:51:48;12.43;;;9.13;;
8952;SDS011;4511;50.890;8.054;2022-10-31T05:54:15;21.93;;;15.23;;
8952;SDS011;4511;50.890;8.054;2022-10-31T05:56:42;11.03;;;6.47;;
8952;SDS011;4511;50.890;8.054;2022-10-31T05:59:10;8.27;;;6.20;;
8952;SDS011;4511;50.890;8.054;2022-10-31T06:01:36;23.17;;;17.10;;
8952;SDS011;4511;50.890;8.054;2022-10-31T06:04:03;12.37;;;7.77;;
8952;SDS011;4511;50.890;8.054;2022-10-31T06:06:30;13.43;;;7.87;;
8952;SDS011;4511;50.890;8.054;2022-10-31T06:08:57;14.70;;;8.10;;
8952;SDS011;4511;50.890;8.054;2022-10-31T06:11:24;13.93;;;8.10;;
8952;SDS011;4511;50.890;8.054;2022-10-31T06:13:50;13.07;;;8.20;;
8952;SDS011;4511;50.890;8.054;2022-10-31T06:16:18;11.40;;;7.50;;
8952;SDS011;4511;50.890;8.054;2022-10-31T06:18:45;16.23;;;8.43;;
8952;SDS011;4511;50.890;8.054;2022-10-31T06:21:12;14.33;;;8.27;;
8952;SDS011;4511;50.890;8.054;2022-10-31T06:23:39;11.77;;;7.40;;
8952;SDS011;4511;50.890;8.054;2022-10-31T06:26:05;12.77;;;7.10;;
8952;SDS011;4511;50.890;8.054;2022-10-31T06:28:32;11.10;;;6.90;;
8952;SDS011;4511;50.890;8.054;2022-10-31T06:30:59;10.73;;;6.80;;
8952;SDS011;4511;50.890;8.054;2022-10-31T06:33:27;13.17;;;6.90;;
8952;SDS011;4511;50.890;8.054;2022-10-31T06:35:53;9.50;;;6.77;;
8952;SDS011;4511;50.890;8.054;2022-10-31T06:38:20;13.57;;;6.70;;
8952;SDS011;4511;50.890;8.054;2022-10-31T06:40:47;11.07;;;6.47;;
8952;SDS011;4511;50.890;8.054;2022-10-31T06:43:14;10.53;;;6.43;;
8952;SDS011;4511;50.890;8.054;2022-10-31T06:45:40;9.93;;;6.93;;
8952;SDS011;4511;50.890;8.054;2022-10-31T06:48:07;10.47;;;6.90;;
8952;SDS011;4511;50.890;8.054;2022-10-31T06:50:35;11.20;;;6.73;;
8952;SDS011;4511;50.890;8.054;2022-10-31T06:53:02;7.93;;;6.93;;
8952;SDS011;4511;50.890;8.054;2022-10-31T06:55:29;12.77;;;7.30;;
8952;SDS011;4511;50.890;8.054;2022-10-31T06:57:56;11.60;;;6.87;;
8952;SDS011;4511;50.890;8.054;2022-10-31T07:00:25;9.67;;;6.37;;
8952;SDS011;4511;50.890;8.054;2022-10-31T07:02:53;9.23;;;6.63;;
8952;SDS011;4511;50.890;8.054;2022-10-31T07:05:20;13.30;;;6.97;;
8952;SDS011;4511;50.890;8.054;2022-10-31T07:07:49;12.03;;;6.43;;
8952;SDS011;4511;50.890;8.054;2022-10-31T07:10:18;12.10;;;6.50;;
8952;SDS011;4511;50.890;8.054;2022-10-31T07:12:45;9.37;;;6.73;;
8952;SDS011;4511;50.890;8.054;2022-10-31T07:15:12;10.53;;;6.83;;
8952;SDS011;4511;50.890;8.054;2022-10-31T07:17:38;11.57;;;7.03;;
8952;SDS011;4511;50.890;8.054;2022-10-31T07:20:06;12.27;;;6.70;;
8952;SDS011;4511;50.890;8.054;2022-10-31T07:22:33;11.87;;;7.03;;
8952;SDS011;4511;50.890;8.054;2022-10-31T07:25:02;14.03;;;6.97;;
8952;SDS011;4511;50.890;8.054;2022-10-31T07:27:34;11.43;;;7.20;;
8952;SDS011;4511;50.890;8.054;2022-10-31T07:30:01;11.83;;;6.60;;
8952;SDS011;4511;50.890;8.054;2022-10-31T07:32:36;12.70;;;6.20;;
8952;SDS011;4511;50.890;8.054;2022-10-31T07:35:03;9.10;;;6.70;;
8952;SDS011;4511;50.890;8.054;2022-10-31T07:37:30;8.97;;;6.90;;
8952;SDS011;4511;50.890;8.054;2022-10-31T07:39:57;11.03;;;7.00;;
8952;SDS011;4511;50.890;8.054;2022-10-31T07:42:26;13.23;;;8.00;;
8952;SDS011;4511;50.890;8.054;2022-10-31T07:44:53;11.97;;;7.23;;
8952;SDS011;4511;50.890;8.054;2022-10-31T07:47:19;14.53;;;7.73;;
8952;SDS011;4511;50.890;8.054;2022-10-31T07:49:46;15.67;;;9.23;;
8952;SDS011;4511;50.890;8.054;2022-10-31T07:52:13;17.70;;;9.33;;
8952;SDS011;4511;50.890;8.054;2022-10-31T07:54:40;14.37;;;9.20;;
8952;SDS011;4511;50.890;8.054;2022-10-31T07:57:07;12.20;;;8.67;;
8952;SDS011;4511;50.890;8.054;2022-10-31T07:59:35;12.70;;;7.23;;
8952;SDS011;4511;50.890;8.054;2022-10-31T08:02:02;10.30;;;7.23;;
8952;SDS011;4511;50.890;8.054;2022-10-31T08:04:29;11.53;;;7.53;;
8952;SDS011;4511;50.890;8.054;2022-10-31T08:06:55;13.63;;;8.00;;
8952;SDS011;4511;50.890;8.054;2022-10-31T08:09:22;13.33;;;8.40;;
8952;SDS011;4511;50.890;8.054;2022-10-31T08:11:50;11.67;;;8.23;;
8952;SDS011;4511;50.890;8.054;2022-10-31T08:14:18;12.47;;;8.47;;
8952;SDS011;4511;50.890;8.054;2022-10-31T08:16:46;13.67;;;7.90;;
8952;SDS011;4511;50.890;8.054;2022-10-31T08:19:13;12.80;;;8.33;;
8952;SDS011;4511;50.890;8.054;2022-10-31T08:21:40;13.33;;;8.20;;
8952;SDS011;4511;50.890;8.054;2022-10-31T08:24:07;10.40;;;8.07;;
8952;SDS011;4511;50.890;8.054;2022-10-31T08:26:34;13.50;;;7.67;;
8952;SDS011;4511;50.890;8.054;2022-10-31T08:29:00;10.80;;;8.27;;
8952;SDS011;4511;50.890;8.054;2022-10-31T08:31:28;14.10;;;8.07;;
8952;SDS011;4511;50.890;8.054;2022-10-31T08:33:56;11.73;;;7.33;;
8952;SDS011;4511;50.890;8.054;2022-10-31T08:36:22;14.30;;;7.57;;
8952;SDS011;4511;50.890;8.054;2022-10-31T08:38:49;11.63;;;7.03;;
8952;SDS011;4511;50.890;8.054;2022-10-31T08:41:16;10.73;;;7.47;;
8952;SDS011;4511;50.890;8.054;2022-10-31T08:43:43;13.47;;;7.67;;
8952;SDS011;4511;50.890;8.054;2022-10-31T08:46:10;13.53;;;7.60;;
8952;SDS011;4511;50.890;8.054;2022-10-31T08:48:37;15.83;;;7.40;;
8952;SDS011;4511;50.890;8.054;2022-10-31T08:51:05;10.43;;;7.20;;
8952;SDS011;4511;50.890;8.054;2022-10-31T08:53:32;10.97;;;7.33;;
8952;SDS011;4511;50.890;8.054;2022-10-31T08:55:59;9.97;;;7.43;;
8952;SDS011;4511;50.890;8.054;2022-10-31T08:58:26;12.07;;;7.70;;
8952;SDS011;4511;50.890;8.054;2022-10-31T09:00:53;13.23;;;8.17;;
8952;SDS011;4511;50.890;8.054;2022-10-31T09:03:21;13.77;;;8.20;;
8952;SDS011;4511;50.890;8.054;2022-10-31T09:05:49;11.17;;;7.73;;
8952;SDS011;4511;50.890;8.054;2022-10-31T09:08:18;12.67;;;7.90;;
8952;SDS011;4511;50.890;8.054;2022-10-31T09:10:45;11.23;;;7.97;;
8952;SDS011;4511;50.890;8.054;2022-10-31T09:13:13;11.70;;;6.93;;
8952;SDS011;4511;50.890;8.054;2022-10-31T09:15:42;12.47;;;8.40;;
8952;SDS011;4511;50.890;8.054;2022-10-31T09:18:10;9.77;;;7.33;;
8952;SDS011;4511;50.890;8.054;2022-10-31T09:20:38;13.20;;;7.33;;
8952;SDS011;4511;50.890;8.054;2022-10-31T09:23:06;15.73;;;7.67;;
8952;SDS011;4511;50.890;8.054;2022-10-31T09:25:37;12.87;;;7.27;;
8952;SDS011;4511;50.890;8.054;2022-10-31T09:28:05;12.47;;;7.67;;
8952;SDS011;4511;50.890;8.054;2022-10-31T09:30:33;16.17;;;8.73;;
8952;SDS011;4511;50.890;8.054;2022-10-31T09:33:01;14.17;;;9.47;;
8952;SDS011;4511;50.890;8.054;2022-10-31T09:35:30;14.90;;;8.07;;
8952;SDS011;4511;50.890;8.054;2022-10-31T09:37:57;17.87;;;9.67;;
8952;SDS011;4511;50.890;8.054;2022-10-31T09:40:27;14.50;;;9.50;;
8952;SDS011;4511;50.890;8.054;2022-10-31T09:43:00;16.03;;;8.77;;
8952;SDS011;4511;50.890;8.054;2022-10-31T09:45:36;20.53;;;9.83;;
8952;SDS011;4511;50.890;8.054;2022-10-31T09:48:11;13.93;;;9.30;;
8952;SDS011;4511;50.890;8.054;2022-10-31T09:50:49;19.43;;;9.70;;
8952;SDS011;4511;50.890;8.054;2022-10-31T09:53:21;19.10;;;8.60;;
8952;SDS011;4511;50.890;8.054;2022-10-31T09:55:51;19.87;;;9.30;;
8952;SDS011;4511;50.890;8.054;2022-10-31T09:58:23;15.03;;;8.80;;
8952;SDS011;4511;50.890;8.054;2022-10-31T10:00:52;15.67;;;10.07;;
8952;SDS011;4511;50.890;8.054;2022-10-31T10:03:26;19.50;;;10.20;;
8952;SDS011;4511;50.890;8.054;2022-10-31T10:06:02;17.47;;;10.47;;
8952;SDS011;4511;50.890;8.054;2022-10-31T10:08:36;22.33;;;9.63;;
8952;SDS011;4511;50.890;8.054;2022-10-31T10:11:12;16.77;;;9.37;;
8952;SDS011;4511;50.890;8.054;2022-10-31T10:13:56;22.77;;;10.50;;
8952;SDS011;4511;50.890;8.054;2022-10-31T10:16:38;15.77;;;9.83;;
8952;SDS011;4511;50.890;8.054;2022-10-31T10:19:19;15.27;;;8.90;;
8952;SDS011;4511;50.890;8.054;2022-10-31T10:21:53;20.70;;;9.40;;
8952;SDS011;4511;50.890;8.054;2022-10-31T10:24:32;15.63;;;9.63;;
8952;SDS011;4511;50.890;8.054;2022-10-31T10:27:11;17.57;;;9.07;;
8952;SDS011;4511;50.890;8.054;2022-10-31T10:29:47;16.23;;;9.00;;
8952;SDS011;4511;50.890;8.054;2022-10-31T10:32:19;18.73;;;9.60;;
8952;SDS011;4511;50.890;8.054;2022-10-31T10:34:50;17.60;;;8.60;;
8952;SDS011;4511;50.890;8.054;2022-10-31T10:37:22;18.17;;;9.57;;
8952;SDS011;4511;50.890;8.054;2022-10-31T10:39:55;16.33;;;9.10;;
8952;SDS011;4511;50.890;8.054;2022-10-31T10:42:24;15.00;;;9.53;;
8952;SDS011;4511;50.890;8.054;2022-10-31T10:45:18;17.97;;;9.40;;
8952;SDS011;4511;50.890;8.054;2022-10-31T10:48:05;15.00;;;9.07;;
8952;SDS011;4511;50.890;8.054;2022-10-31T10:50:39;16.90;;;8.77;;
8952;SDS011;4511;50.890;8.054;2022-10-31T10:53:13;20.17;;;9.57;;
8952;SDS011;4511;50.890;8.054;2022-10-31T10:56:02;13.83;;;8.57;;
8952;SDS011;4511;50.890;8.054;2022-10-31T10:58:37;15.17;;;8.00;;
8952;SDS011;4511;50.890;8.054;2022-10-31T11:01:10;15.33;;;8.23;;
8952;SDS011;4511;50.890;8.054;2022-10-31T11:03:38;15.87;;;8.20;;
8952;SDS011;4511;50.890;8.054;2022-10-31T11:06:15;12.33;;;8.00;;
8952;SDS011;4511;50.890;8.054;2022-10-31T11:08:45;13.43;;;7.90;;
8952;SDS011;4511;50.890;8.054;2022-10-31T11:11:15;14.17;;;8.00;;
8952;SDS011;4511;50.890;8.054;2022-10-31T11:13:51;17.40;;;8.50;;
8952;SDS011;4511;50.890;8.054;2022-10-31T11:16:30;17.87;;;8.30;;
8952;SDS011;4511;50.890;8.054;2022-10-31T11:19:06;14.10;;;8.13;;
8952;SDS011;4511;50.890;8.054;2022-10-31T11:21:35;17.00;;;7.30;;
8952;SDS011;4511;50.890;8.054;2022-10-31T11:24:03;17.27;;;7.60;;
8952;SDS011;4511;50.890;8.054;2022-10-31T11:26:30;14.53;;;7.50;;
8952;SDS011;4511;50.890;8.054;2022-10-31T11:29:00;16.97;;;7.20;;
8952;SDS011;4511;50.890;8.054;2022-10-31T11:31:29;13.60;;;7.00;;
8952;SDS011;4511;50.890;8.054;2022-10-31T11:33:58;14.03;;;6.90;;
8952;SDS011;4511;50.890;8.054;2022-10-31T11:36:29;14.63;;;6.50;;
8952;SDS011;4511;50.890;8.054;2022-10-31T11:38:57;11.73;;;6.00;;
8952;SDS011;4511;50.890;8.054;2022-10-31T11:41:26;12.37;;;6.17;;
8952;SDS011;4511;50.890;8.054;2022-10-31T11:43:56;10.10;;;5.83;;
8952;SDS011;4511;50.890;8.054;2022-10-31T11:46:26;15.00;;;5.27;;
8952;SDS011;4511;50.890;8.054;2022-10-31T11:49:00;9.97;;;5.47;;
8952;SDS011;4511;50.890;8.054;2022-10-31T11:51:29;8.33;;;5.33;;
8952;SDS011;4511;50.890;8.054;2022-10-31T11:53:59;14.77;;;5.43;;
8952;SDS011;4511;50.890;8.054;2022-10-31T11:56:27;9.53;;;4.93;;
8952;SDS011;4511;50.890;8.054;2022-10-31T11:59:05;8.17;;;4.67;;
8952;SDS011;4511;50.890;8.054;2022-10-31T12:01:46;12.03;;;5.20;;
8952;SDS011;4511;50.890;8.054;2022-10-31T12:04:14;8.87;;;4.60;;
8952;SDS011;4511;50.890;8.054;2022-10-31T12:06:42;8.57;;;5.00;;
8952;SDS011;4511;50.890;8.054;2022-10-31T12:09:20;9.13;;;4.90;;
8952;SDS011;4511;50.890;8.054;2022-10-31T12:11:52;10.97;;;4.60;;
8952;SDS011;4511;50.890;8.054;2022-10-31T12:14:30;11.90;;;5.00;;
8952;SDS011;4511;50.890;8.054;2022-10-31T12:17:05;12.73;;;4.43;;
8952;SDS011;4511;50.890;8.054;2022-10-31T12:19:41;9.73;;;5.00;;
8952;SDS011;4511;50.890;8.054;2022-10-31T12:22:13;11.67;;;4.50;;
8952;SDS011;4511;50.890;8.054;2022-10-31T12:24:57;9.70;;;4.67;;
8952;SDS011;4511;50.890;8.054;2022-10-31T12:27:44;14.07;;;4.67;;
8952;SDS011;4511;50.890;8.054;2022-10-31T12:30:31;14.60;;;4.63;;
8952;SDS011;4511;50.890;8.054;2022-10-31T12:36:04;10.67;;;4.90;;
8952;SDS011;4511;50.890;8.054;2022-10-31T12:38:46;9.43;;;4.20;;
8952;SDS011;4511;50.890;8.054;2022-10-31T12:41:29;7.97;;;4.70;;
8952;SDS011;4511;50.890;8.054;2022-10-31T12:44:06;9.63;;;4.30;;
8952;SDS011;4511;50.890;8.054;2022-10-31T12:49:38;10.47;;;4.90;;
8952;SDS011;4511;50.890;8.054;2022-10-31T12:52:16;12.53;;;4.60;;
8952;SDS011;4511;50.890;8.054;2022-10-31T12:55:00;15.10;;;4.93;;
8952;SDS011;4511;50.890;8.054;2022-10-31T12:57:32;9.23;;;4.47;;
8952;SDS011;4511;50.890;8.054;2022-10-31T13:00:03;6.77;;;3.90;;
8952;SDS011;4511;50.890;8.054;2022-10-31T13:02:38;10.37;;;4.43;;
8952;SDS011;4511;50.890;8.054;2022-10-31T13:05:13;10.20;;;4.73;;
8952;SDS011;4511;50.890;8.054;2022-10-31T13:07:44;11.73;;;4.67;;
8952;SDS011;4511;50.890;8.054;2022-10-31T13:10:16;9.00;;;4.80;;
8952;SDS011;4511;50.890;8.054;2022-10-31T13:12:48;11.83;;;4.93;;
8952;SDS011;4511;50.890;8.054;2022-10-31T13:15:17;11.40;;;4.70;;
8952;SDS011;4511;50.890;8.054;2022-10-31T13:17:47;10.57;;;5.00;;
8952;SDS011;4511;50.890;8.054;2022-10-31T13:20:20;13.70;;;5.30;;
8952;SDS011;4511;50.890;8.054;2022-10-31T13:22:51;14.17;;;5.03;;
8952;SDS011;4511;50.890;8.054;2022-10-31T13:25:23;9.77;;;4.80;;
8952;SDS011;4511;50.890;8.054;2022-10-31T13:27:54;12.47;;;4.80;;
8952;SDS011;4511;50.890;8.054;2022-10-31T13:30:25;10.80;;;4.87;;
8952;SDS011;4511;50.890;8.054;2022-10-31T13:32:56;13.20;;;4.77;;
8952;SDS011;4511;50.890;8.054;2022-10-31T13:35:31;10.67;;;4.67;;
8952;SDS011;4511;50.890;8.054;2022-10-31T13:38:08;8.63;;;4.80;;
8952;SDS011;4511;50.890;8.054;2022-10-31T13:40:44;8.23;;;4.20;;
8952;SDS011;4511;50.890;8.054;2022-10-31T13:43:19;9.20;;;4.60;;
8952;SDS011;4511;50.890;8.054;2022-10-31T13:45:52;10.33;;;4.80;;
8952;SDS011;4511;50.890;8.054;2022-10-31T13:48:39;11.17;;;4.70;;
8952;SDS011;4511;50.890;8.054;2022-10-31T13:51:09;14.00;;;5.13;;
8952;SDS011;4511;50.890;8.054;2022-10-31T13:53:38;10.97;;;4.63;;
8952;SDS011;4511;50.890;8.054;2022-10-31T13:56:22;9.63;;;5.13;;
8952;SDS011;4511;50.890;8.054;2022-10-31T13:58:59;8.70;;;4.37;;
8952;SDS011;4511;50.890;8.054;2022-10-31T14:01:28;12.30;;;4.70;;
8952;SDS011;4511;50.890;8.054;2022-10-31T14:03:58;10.60;;;4.90;;
8952;SDS011;4511;50.890;8.054;2022-10-31T14:06:37;12.07;;;5.43;;
8952;SDS011;4511;50.890;8.054;2022-10-31T14:09:15;13.73;;;4.77;;
8952;SDS011;4511;50.890;8.054;2022-10-31T14:11:46;10.83;;;5.00;;
8952;SDS011;4511;50.890;8.054;2022-10-31T14:14:14;12.83;;;4.30;;
8952;SDS011;4511;50.890;8.054;2022-10-31T14:16:43;8.10;;;4.53;;
8952;SDS011;4511;50.890;8.054;2022-10-31T14:19:14;11.20;;;5.00;;
8952;SDS011;4511;50.890;8.054;2022-10-31T14:21:46;9.53;;;5.07;;
8952;SDS011;4511;50.890;8.054;2022-10-31T14:24:14;11.77;;;5.03;;
8952;SDS011;4511;50.890;8.054;2022-10-31T14:26:58;11.23;;;4.40;;
8952;SDS011;4511;50.890;8.054;2022-10-31T14:29:26;13.87;;;4.60;;
8952;SDS011;4511;50.890;8.054;2022-10-31T14:31:55;14.50;;;5.03;;
8952;SDS011;4511;50.890;8.054;2022-10-31T14:34:36;12.67;;;4.50;;
8952;SDS011;4511;50.890;8.054;2022-10-31T14:37:14;9.87;;;5.07;;
8952;SDS011;4511;50.890;8.054;2022-10-31T14:40:05;11.40;;;4.63;;
8952;SDS011;4511;50.890;8.054;2022-10-31T14:42:48;10.17;;;4.60;;
8952;SDS011;4511;50.890;8.054;2022-10-31T14:45:27;8.20;;;4.73;;
8952;SDS011;4511;50.890;8.054;2022-10-31T14:48:10;10.20;;;4.77;;
8952;SDS011;4511;50.890;8.054;2022-10-31T14:50:47;10.07;;;4.20;;
8952;SDS011;4511;50.890;8.054;2022-10-31T14:53:19;12.80;;;4.53;;
8952;SDS011;4511;50.890;8.054;2022-10-31T14:55:54;9.43;;;4.40;;
8952;SDS011;4511;50.890;8.054;2022-10-31T14:58:22;8.20;;;4.20;;
8952;SDS011;4511;50.890;8.054;2022-10-31T15:00:55;11.57;;;4.37;;
8952;SDS011;4511;50.890;8.054;2022-10-31T15:03:24;11.57;;;4.60;;
8952;SDS011;4511;50.890;8.054;2022-10-31T15:05:56;11.10;;;4.60;;
8952;SDS011;4511;50.890;8.054;2022-10-31T15:08:29;15.13;;;4.87;;
8952;SDS011;4511;50.890;8.054;2022-10-31T15:11:02;9.77;;;4.23;;
8952;SDS011;4511;50.890;8.054;2022-10-31T15:13:29;11.13;;;4.60;;
8952;SDS011;4511;50.890;8.054;2022-10-31T15:15:56;8.60;;;4.93;;
8952;SDS011;4511;50.890;8.054;2022-10-31T15:18:24;12.90;;;4.27;;
8952;SDS011;4511;50.890;8.054;2022-10-31T15:20:52;13.33;;;4.57;;
8952;SDS011;4511;50.890;8.054;2022-10-31T15:23:25;9.23;;;4.30;;
8952;SDS011;4511;50.890;8.054;2022-10-31T15:25:58;9.73;;;4.87;;
8952;SDS011;4511;50.890;8.054;2022-10-31T15:28:26;7.93;;;4.40;;
8952;SDS011;4511;50.890;8.054;2022-10-31T15:30:54;10.17;;;4.30;;
8952;SDS011;4511;50.890;8.054;2022-10-31T15:33:23;8.77;;;4.50;;